Time;durP1;ratioP1;P1;durP2;ratioP2;P2;SDS_P1;SDS_P2;PMS_P1;PMS_P2;Temp;Humidity;BMP_temperature;BMP_pressure;BME280_temperature;BME280_humidity;BME280_pressure;Samples;Min_cycle;Max_cycle;Signal;HPM_P1;HPM_P2
2022/01/13 00:02:00;;;;;;;102.80;26.92;;;5.50;99.90;;;;;;5819764;24;20342;-81
2022/01/13 00:35:17;;;;;;;124.60;25.95;;;5.40;99.90;;;;;;5311605;23;19579228;-81
2022/01/13 00:38:28;;;;;;;98.55;25.33;;;5.40;99.90;;;;;;6020144;23;20062;-81
2022/01/13 00:45:13;;;;;;;92.03;21.33;;;4.80;99.90;;;;;;6011976;23;20102;-81
2022/01/13 00:48:43;;;;;;;95.55;22.50;;;5.10;99.90;;;;;;5984672;23;20023;-81
2022/01/13 00:52:14;;;;;;;87.07;21.17;;;5.20;99.90;;;;;;5994410;23;20022;-81
2022/01/13 00:56:12;;;;;;;;;;;;;;;;;;;;;
2022/01/13 00:59:12;;;;;;;86.05;21.30;;;5.10;99.90;;;;;;5888932;24;20010;-81
2022/01/13 01:22:54;;;;;;;83.07;21.65;;;5.00;99.90;;;;;;6214908;23;20236;-82
2022/01/13 01:30:15;;;;;;;95.90;24.20;;;6.00;99.90;;;;;;6043413;23;20030;-82
2022/01/13 01:37:11;;;;;;;102.05;23.60;;;4.30;99.90;;;;;;6010059;23;20027;-82
2022/01/13 01:43:40;;;;;;;;;;;;;;;;;;;;;
2022/01/13 01:47:00;;;;;;;117.75;25.15;;;5.00;99.90;;;;;;5988532;23;20402;-82
2022/01/13 01:50:37;;;;;;;;;;;;;;;;;;;;;
2022/01/13 02:01:47;;;;;;;;;;;;;;;;;;;;;
2022/01/13 02:05:00;;;;;;;124.00;25.55;;;4.40;99.90;;;;;;6039943;23;20472;-81
2022/01/13 02:08:04;;;;;;;108.88;25.33;;;5.40;99.90;;;;;;5953884;24;20027;-82
2022/01/13 02:11:26;;;;;;;116.43;25.27;;;6.00;99.90;;;;;;6037991;23;20042;-82
2022/01/13 02:14:50;;;;;;;103.95;24.92;;;4.70;99.90;;;;;;6036307;23;20021;-82
2022/01/13 02:22:00;;;;;;;98.43;23.92;;;5.30;99.90;;;;;;5919902;24;20406;-81
2022/01/13 02:33:08;;;;;;;;;;;;;;;;;;;;;
2022/01/13 02:36:52;;;;;;;96.50;25.17;;;5.10;99.90;;;;;;5893124;24;20017;-82
2022/01/13 02:40:08;;;;;;;99.78;25.48;;;4.40;99.90;;;;;;5887166;24;20032;-82
2022/01/13 03:14:15;;;;;;;;;;;;;;;;;;;;;
2022/01/13 03:17:30;;;;;;;105.60;23.38;;;5.30;99.90;;;;;;6118063;23;20014;-82
2022/01/13 03:20:55;;;;;;;94.80;22.90;;;5.40;99.90;;;;;;6003661;23;20016;-81
2022/01/13 03:30:48;;;;;;;;;;;;;;;;;;;;;
2022/01/13 04:02:14;;;;;;;93.18;24.08;;;5.10;99.90;;;;;;6034619;23;20102;-82
2022/01/13 04:04:58;;;;;;;124.18;26.45;;;5.10;99.90;;;;;;6012465;23;20015;-82
2022/01/13 04:07:25;;;;;;;100.85;24.38;;;5.10;99.90;;;;;;6059484;23;20019;-82
2022/01/13 04:09:56;;;;;;;113.10;24.80;;;5.10;99.90;;;;;;6038162;23;20074;-82
2022/01/13 04:12:25;;;;;;;123.40;25.10;;;5.10;99.90;;;;;;6036874;23;20049;-83
2022/01/13 04:14:56;;;;;;;110.93;25.58;;;5.20;99.90;;;;;;6085396;23;20025;-82
2022/01/13 04:17:23;;;;;;;140.82;24.63;;;5.00;99.90;;;;;;6099602;23;20022;-82
2022/01/13 04:19:52;;;;;;;136.20;26.13;;;5.00;99.90;;;;;;6122969;22;20056;-82
2022/01/13 04:22:24;;;;;;;135.70;24.58;;;5.30;99.90;;;;;;6243935;22;20448;-82
2022/01/13 04:24:54;;;;;;;125.80;25.13;;;5.00;99.90;;;;;;6219576;22;20517;-82
2022/01/13 04:27:29;;;;;;;146.80;26.17;;;5.10;99.90;;;;;;6244256;22;20572;-82
2022/01/13 04:32:45;;;;;;;172.85;26.00;;;5.00;99.90;;;;;;6245388;22;20012;-82
2022/01/13 04:35:27;;;;;;;140.50;26.75;;;5.20;99.90;;;;;;6228880;23;20016;-82
2022/01/13 04:38:00;;;;;;;116.85;24.33;;;5.40;99.90;;;;;;6194143;22;20031;-83
2022/01/13 04:40:27;;;;;;;112.55;21.60;;;5.10;99.90;;;;;;6220126;22;20098;-82
2022/01/13 04:42:56;;;;;;;135.80;25.90;;;5.10;99.90;;;;;;6246378;22;20077;-82
2022/01/13 04:45:24;;;;;;;146.55;26.67;;;5.20;99.90;;;;;;6221755;22;20060;-82
2022/01/13 04:47:57;;;;;;;103.80;21.52;;;5.10;99.90;;;;;;6221547;22;20065;-83
2022/01/13 04:50:28;;;;;;;105.28;22.90;;;5.20;99.90;;;;;;6247319;22;20012;-82
2022/01/13 04:52:57;;;;;;;118.72;23.65;;;5.20;99.90;;;;;;6222003;22;20467;-83
2022/01/13 04:55:35;;;;;;;111.22;23.30;;;5.20;99.90;;;;;;6245949;22;20011;-83
2022/01/13 04:58:09;;;;;;;132.55;24.38;;;5.30;99.90;;;;;;6222482;22;20015;-82
2022/01/13 05:00:35;;;;;;;138.45;24.30;;;5.20;99.90;;;;;;6221502;22;20024;-82
2022/01/13 05:03:01;;;;;;;141.75;24.27;;;5.10;99.90;;;;;;6245885;22;20011;-82
2022/01/13 05:05:26;;;;;;;151.27;24.98;;;5.10;99.90;;;;;;6220897;22;20086;-83
2022/01/13 05:07:53;;;;;;;139.02;24.20;;;5.20;99.90;;;;;;6246902;22;20402;-83
2022/01/13 05:10:29;;;;;;;150.27;25.17;;;5.10;99.90;;;;;;6221244;22;20453;-82
2022/01/13 05:12:57;;;;;;;150.52;24.88;;;5.10;99.90;;;;;;6224656;22;20023;-82
2022/01/13 05:15:27;;;;;;;147.30;25.00;;;5.20;99.90;;;;;;6249755;22;20653;-82
2022/01/13 05:18:20;;;;;;;174.60;25.00;;;5.40;99.90;;;;;;6272006;22;20015;-83
2022/01/13 05:20:58;;;;;;;144.93;23.90;;;5.20;99.90;;;;;;6247648;22;20012;-83
2022/01/13 05:23:44;;;;;;;168.20;25.08;;;5.20;99.90;;;;;;6247552;22;20026;-82
2022/01/13 05:26:22;;;;;;;199.95;26.10;;;5.10;99.90;;;;;;6272794;22;20012;-83
2022/01/13 05:33:10;;;;;;;;;;;;;;;;;;;;;
2022/01/13 05:40:31;;;;;;;;;;;;;;;;;;;;;
2022/01/13 05:50:53;;;;;;;178.40;25.08;;;5.20;99.90;;;;;;6028834;23;20007;-82
2022/01/13 05:54:30;;;;;;;;;;;;;;;;;;;;;
2022/01/13 06:01:41;;;;;;;182.73;27.08;;;4.90;99.90;;;;;;6034539;23;20026;-83
2022/01/13 06:21:32;;;;;;;205.27;28.17;;;5.40;99.90;;;;;;6074782;23;20048;-78
2022/01/13 06:24:19;;;;;;;150.40;25.77;;;5.60;99.90;;;;;;6045571;23;20023;-79
2022/01/13 06:27:13;;;;;;;161.60;29.98;;;6.00;99.90;;;;;;6046976;23;20015;-79
2022/01/13 06:30:30;;;;;;;179.82;28.08;;;6.60;99.90;;;;;;6023823;23;20011;-79
2022/01/13 06:33:40;;;;;;;198.15;30.85;;;6.00;99.90;;;;;;5992419;23;20022;-82
2022/01/13 06:36:31;;;;;;;164.52;30.52;;;5.50;99.90;;;;;;5990006;23;20044;-82
2022/01/13 06:49:51;;;;;;;171.27;28.35;;;5.00;99.90;;;;;;5844549;24;20294;-80
2022/01/13 06:55:22;;;;;;;;;;;5.60;99.90;;;;;;5774444;24;20023;-79
2022/01/13 06:57:48;;;;;;;160.98;29.15;;;6.30;99.90;;;;;;5820415;24;19908;-78
2022/01/13 07:00:33;;;;;;;209.20;30.73;;;6.90;99.90;;;;;;5818907;24;20075;-80
2022/01/13 07:03:14;;;;;;;226.05;31.58;;;5.70;99.90;;;;;;5838107;24;20033;-81
2022/01/13 07:06:34;;;;;;;206.60;33.00;;;5.80;99.90;;;;;;5871859;24;20056;-80
2022/01/13 07:32:09;;;;;;;;;;;;;;;;;;;;;
2022/01/13 07:35:58;;;;;;;194.73;32.20;;;6.20;99.90;;;;;;5021839;28;20068;-81
2022/01/13 07:40:14;;;;;;;;;;;;;;;;;;;;;
2022/01/13 07:46:51;;;;;;;189.75;31.23;;;5.90;99.90;;;;;;4836628;29;20151;-81
2022/01/13 07:49:16;;;;;;;146.75;29.17;;;5.90;99.90;;;;;;4818959;29;20736;-80
2022/01/13 07:51:42;;;;;;;179.68;32.70;;;5.90;99.90;;;;;;4836081;29;20365;-80
2022/01/13 07:54:08;;;;;;;145.57;31.25;;;5.90;99.90;;;;;;4818776;29;20046;-80
2022/01/13 07:56:34;;;;;;;151.95;29.80;;;6.00;99.90;;;;;;4817623;29;20057;-80
2022/01/13 07:59:02;;;;;;;146.07;31.25;;;6.00;99.90;;;;;;4831625;29;20054;-81
2022/01/13 08:01:27;;;;;;;145.32;28.65;;;6.00;99.90;;;;;;4834606;29;20082;-81
2022/01/13 08:03:55;;;;;;;124.70;29.42;;;6.00;99.90;;;;;;4836053;29;20160;-80
2022/01/13 08:06:21;;;;;;;166.30;32.83;;;5.50;99.90;;;;;;4815284;29;20361;-81
2022/01/13 08:08:49;;;;;;;151.10;30.70;;;6.00;99.90;;;;;;4799547;29;20166;-82
2022/01/13 08:11:16;;;;;;;133.18;31.58;;;6.90;99.90;;;;;;4799349;29;20055;-83
2022/01/13 08:13:46;;;;;;;156.80;32.08;;;6.10;99.90;;;;;;4793015;29;20058;-85
2022/01/13 08:16:12;;;;;;;172.02;32.47;;;6.30;99.90;;;;;;4851790;28;20054;-85
2022/01/13 08:21:57;;;;;;;160.90;32.65;;;6.00;99.90;;;;;;5048454;28;20503;-83
2022/01/13 08:24:27;;;;;;;170.50;32.80;;;6.00;99.90;;;;;;5046053;28;20047;-82
2022/01/13 08:26:53;;;;;;;156.30;31.50;;;6.10;99.90;;;;;;5025873;28;20049;-83
2022/01/13 08:29:19;;;;;;;135.50;27.95;;;6.00;99.90;;;;;;5044666;28;20029;-83
2022/01/13 08:31:51;;;;;;;142.07;29.85;;;6.00;99.90;;;;;;5002762;28;20529;-84
2022/01/13 08:34:16;;;;;;;174.60;33.35;;;6.00;99.90;;;;;;4990617;28;22263;-86
2022/01/13 08:37:19;;;;;;;146.00;30.98;;;6.20;99.90;;;;;;4986499;28;20053;-85
2022/01/13 08:40:09;;;;;;;151.02;29.90;;;5.90;99.90;;;;;;4963695;28;20575;-82
2022/01/13 08:42:45;;;;;;;139.15;29.27;;;6.00;99.90;;;;;;4964083;28;20088;-82
2022/01/13 08:45:13;;;;;;;160.10;32.63;;;6.00;99.90;;;;;;4981352;28;20085;-83
2022/01/13 08:47:39;;;;;;;152.63;32.67;;;6.00;99.90;;;;;;4966341;28;20041;-83
2022/01/13 08:50:07;;;;;;;157.73;31.50;;;6.00;99.90;;;;;;4978736;28;20065;-82
2022/01/13 08:55:34;;;;;;;176.88;32.88;;;6.00;99.90;;;;;;4985158;28;20046;-82
2022/01/13 08:58:19;;;;;;;;;;;;;;;;;;;;;
2022/01/13 09:00:44;;;;;;;160.98;32.22;;;5.70;99.90;;;;;;4978266;28;20054;-82
2022/01/13 09:03:11;;;;;;;170.27;32.67;;;6.70;99.90;;;;;;4982168;28;20383;-83
2022/01/13 09:05:38;;;;;;;193.05;35.95;;;6.00;99.90;;;;;;4997012;28;20081;-85
2022/01/13 09:08:06;;;;;;;187.75;35.67;;;6.00;99.90;;;;;;4975486;28;20053;-83
2022/01/13 09:10:32;;;;;;;174.38;34.38;;;5.90;99.90;;;;;;4983401;28;20053;-83
2022/01/13 09:13:01;;;;;;;180.40;35.70;;;6.00;99.90;;;;;;5001598;28;20049;-88
2022/01/13 09:15:36;;;;;;;177.07;34.40;;;6.30;99.90;;;;;;5043943;28;20037;-82
2022/01/13 09:18:09;;;;;;;;;;;6.10;99.90;;;;;;5020422;28;20373;-85
2022/01/13 09:20:38;;;;;;;167.27;31.05;;;6.40;99.90;;;;;;5024500;28;19936;-85
2022/01/13 09:23:08;;;;;;;161.48;32.90;;;6.10;99.90;;;;;;5011901;28;20136;-88
2022/01/13 09:25:37;;;;;;;176.35;34.10;;;6.00;99.90;;;;;;5022373;28;20049;-85
2022/01/13 09:28:12;;;;;;;160.57;34.90;;;6.70;99.90;;;;;;5027113;28;20106;-86
2022/01/13 09:30:41;;;;;;;154.38;33.95;;;6.00;99.90;;;;;;5021725;28;20071;-86
2022/01/13 09:33:07;;;;;;;168.93;34.30;;;6.60;99.90;;;;;;5009203;28;20116;-84
2022/01/13 09:35:34;;;;;;;149.93;33.97;;;6.60;99.90;;;;;;5008192;28;20049;-86
2022/01/13 09:38:04;;;;;;;157.13;33.92;;;6.00;99.90;;;;;;5015435;28;20459;-83
2022/01/13 09:40:30;;;;;;;153.38;34.78;;;6.10;99.90;;;;;;5004108;28;20053;-84
2022/01/13 09:42:56;;;;;;;128.43;32.10;;;6.10;99.90;;;;;;5005785;28;20388;-86
2022/01/13 09:45:22;;;;;;;131.05;32.85;;;6.00;99.90;;;;;;5008316;28;20172;-87
2022/01/13 09:47:48;;;;;;;130.00;33.67;;;6.70;99.90;;;;;;5007221;28;20049;-84
2022/01/13 09:50:19;;;;;;;130.57;32.55;;;6.00;99.90;;;;;;5039842;28;20099;-79
2022/01/13 09:52:46;;;;;;;114.90;31.88;;;7.00;99.90;;;;;;5052537;28;20091;-84
2022/01/13 09:55:13;;;;;;;133.75;33.60;;;6.20;99.90;;;;;;5039265;28;20453;-81
2022/01/13 09:57:44;;;;;;;109.80;32.33;;;6.20;99.90;;;;;;5015596;28;20049;-81
2022/01/13 10:00:13;;;;;;;104.10;30.88;;;6.20;99.90;;;;;;5020352;28;20061;-85
2022/01/13 10:02:38;;;;;;;110.50;32.45;;;6.20;99.90;;;;;;5040544;28;20408;-84
2022/01/13 10:05:04;;;;;;;106.82;31.00;;;6.90;99.90;;;;;;5027540;28;20061;-81
2022/01/13 10:07:42;;;;;;;108.53;29.27;;;6.20;99.90;;;;;;5015211;28;20045;-83
2022/01/13 10:10:12;;;;;;;90.07;28.73;;;6.40;99.90;;;;;;5052896;28;20072;-88
2022/01/13 10:12:39;;;;;;;107.38;30.98;;;6.40;99.90;;;;;;5036984;28;20045;-84
2022/01/13 10:17:46;;;;;;;115.68;33.45;;;6.20;99.90;;;;;;5052362;28;20083;-85
2022/01/13 10:20:13;;;;;;;94.85;28.52;;;5.90;99.90;;;;;;5052375;28;20452;-85
2022/01/13 10:22:38;;;;;;;109.32;31.95;;;6.60;99.90;;;;;;5038921;28;20060;-84
2022/01/13 10:25:04;;;;;;;117.63;32.40;;;6.40;99.90;;;;;;5057082;28;20118;-87
2022/01/13 10:27:33;;;;;;;113.05;33.63;;;6.40;99.90;;;;;;5032774;28;20056;-85
2022/01/13 10:30:14;;;;;;;112.07;32.03;;;6.40;99.90;;;;;;5057739;28;20090;-86
2022/01/13 10:32:41;;;;;;;110.72;33.25;;;6.40;99.90;;;;;;5025953;28;20080;-85
2022/01/13 10:35:14;;;;;;;115.18;32.38;;;6.40;99.90;;;;;;5035020;28;20037;-83
2022/01/13 10:37:45;;;;;;;114.97;35.10;;;6.90;99.90;;;;;;5045478;28;20048;-85
2022/01/13 10:40:17;;;;;;;111.80;34.17;;;6.40;99.90;;;;;;5061019;28;20052;-79
2022/01/13 10:45:58;;;;;;;108.80;33.83;;;6.50;99.90;;;;;;5054713;28;20040;-80
2022/01/13 10:48:27;;;;;;;84.35;30.02;;;6.50;99.90;;;;;;5001308;28;20609;-82
2022/01/13 10:51:04;;;;;;;97.47;33.10;;;7.30;99.90;;;;;;4993486;28;20042;-84
2022/01/13 10:53:42;;;;;;;115.43;35.03;;;6.40;99.90;;;;;;4977702;28;20062;-87
2022/01/13 10:56:18;;;;;;;100.90;33.95;;;6.50;99.90;;;;;;4972558;28;20128;-82
2022/01/13 10:58:54;;;;;;;107.10;35.15;;;6.40;99.90;;;;;;4994013;28;20378;-81
2022/01/13 11:01:58;;;;;;;110.10;33.72;;;6.50;99.90;;;;;;4988033;28;20051;-80
2022/01/13 11:04:32;;;;;;;89.63;31.75;;;6.50;99.90;;;;;;4984778;28;20533;-88
2022/01/13 11:07:18;;;;;;;100.18;35.55;;;7.40;99.90;;;;;;4966945;28;20131;-85
2022/01/13 11:09:58;;;;;;;91.97;33.53;;;6.60;99.90;;;;;;4992932;28;20143;-84
2022/01/13 11:12:39;;;;;;;94.95;32.47;;;6.50;99.90;;;;;;4989984;28;20054;-86
2022/01/13 11:15:15;;;;;;;89.13;30.15;;;6.60;99.90;;;;;;4973968;28;20157;-86
2022/01/13 11:17:43;;;;;;;98.15;33.03;;;6.60;99.90;;;;;;4988325;28;20076;-85
2022/01/13 11:20:12;;;;;;;95.82;34.50;;;6.60;99.90;;;;;;4993564;28;20449;-85
2022/01/13 11:22:41;;;;;;;88.18;33.20;;;6.60;99.90;;;;;;4983761;28;20054;-86
2022/01/13 11:25:10;;;;;;;104.88;34.72;;;6.60;99.90;;;;;;5058065;28;20071;-87
2022/01/13 11:27:37;;;;;;;97.55;34.72;;;6.70;99.90;;;;;;5039466;28;20053;-85
2022/01/13 11:30:06;;;;;;;81.43;32.38;;;6.70;99.90;;;;;;5064484;28;20123;-87
2022/01/13 11:32:32;;;;;;;87.95;33.17;;;6.70;99.90;;;;;;5037184;28;20036;-85
2022/01/13 11:34:58;;;;;;;91.55;32.33;;;7.40;99.90;;;;;;5037723;28;20203;-85
2022/01/13 11:37:29;;;;;;;96.82;33.40;;;7.10;99.90;;;;;;5073205;28;20048;-84
2022/01/13 11:39:56;;;;;;;86.10;32.17;;;7.60;99.90;;;;;;5054632;28;20047;-84
2022/01/13 11:42:23;;;;;;;66.80;28.08;;;7.40;99.90;;;;;;5057644;28;20162;-84
2022/01/13 11:45:11;;;;;;;70.30;28.40;;;7.50;99.90;;;;;;5073625;28;20043;-88
2022/01/13 11:47:37;;;;;;;76.70;30.38;;;6.80;99.90;;;;;;5037118;28;20087;-84
2022/01/13 11:50:19;;;;;;;79.40;30.67;;;7.30;99.90;;;;;;5047937;28;20064;-85
2022/01/13 11:52:53;;;;;;;70.25;29.80;;;6.80;99.90;;;;;;5056906;28;20059;-87
2022/01/13 11:55:53;;;;;;;83.65;30.40;;;6.80;99.90;;;;;;5037592;28;20059;-87
2022/01/13 11:58:25;;;;;;;59.00;24.63;;;6.70;99.90;;;;;;5002723;28;20045;-87
2022/01/13 12:00:53;;;;;;;67.05;30.75;;;6.80;99.90;;;;;;5061512;28;20040;-87
2022/01/13 12:03:33;;;;;;;89.57;32.35;;;6.80;99.90;;;;;;5056848;28;20413;-86
2022/01/13 12:06:03;;;;;;;85.20;32.05;;;6.80;99.90;;;;;;5089779;28;20043;-86
2022/01/13 12:08:46;;;;;;;77.13;29.10;;;6.80;99.90;;;;;;5091914;28;20036;-85
2022/01/13 12:11:37;;;;;;;62.72;27.00;;;6.80;99.90;;;;;;5026990;28;20419;-86
2022/01/13 12:14:32;;;;;;;63.40;29.13;;;6.90;99.90;;;;;;5047450;28;20062;-85
2022/01/13 12:17:19;;;;;;;65.53;29.42;;;6.80;99.90;;;;;;5058255;28;20045;-85
2022/01/13 12:19:48;;;;;;;73.00;29.55;;;7.20;99.90;;;;;;5046018;28;20044;-85
2022/01/13 12:22:25;;;;;;;66.45;28.05;;;6.90;99.90;;;;;;5045265;28;20048;-80
2022/01/13 12:24:52;;;;;;;52.60;25.45;;;6.90;99.90;;;;;;5065316;28;20132;-80
2022/01/13 12:27:44;;;;;;;55.47;26.85;;;7.20;99.90;;;;;;5074182;28;20475;-86
2022/01/13 12:30:10;;;;;;;60.20;28.55;;;7.20;99.90;;;;;;5036402;28;20037;-84
2022/01/13 12:32:47;;;;;;;55.45;22.50;;;7.10;99.90;;;;;;5036105;28;20094;-82
2022/01/13 12:35:36;;;;;;;62.08;26.65;;;7.10;99.90;;;;;;5038951;28;20485;-81
2022/01/13 12:38:17;;;;;;;61.85;26.23;;;7.60;99.90;;;;;;5024978;28;20080;-83
2022/01/13 12:40:56;;;;;;;58.05;26.55;;;7.00;99.90;;;;;;5028492;28;20099;-82
2022/01/13 12:46:22;;;;;;;63.75;26.38;;;7.10;99.90;;;;;;5068317;28;20042;-85
2022/01/13 12:48:54;;;;;;;55.65;26.92;;;7.20;99.90;;;;;;5063127;28;20098;-84
2022/01/13 12:51:25;;;;;;;49.83;26.17;;;7.20;99.90;;;;;;5070762;28;20036;-81
2022/01/13 12:53:53;;;;;;;49.55;26.35;;;7.20;99.90;;;;;;5054573;28;20514;-86
2022/01/13 12:56:25;;;;;;;57.65;27.92;;;8.10;99.90;;;;;;5037597;28;20047;-83
2022/01/13 12:58:55;;;;;;;60.10;27.20;;;7.30;99.90;;;;;;5052776;28;20029;-82
2022/01/13 13:01:27;;;;;;;50.83;25.55;;;8.20;99.90;;;;;;5065166;28;20041;-80
2022/01/13 13:04:22;;;;;;;43.90;22.80;;;7.40;99.90;;;;;;5044994;28;20057;-81
2022/01/13 13:06:49;;;;;;;52.78;24.52;;;7.60;99.90;;;;;;4954951;28;20054;-83
2022/01/13 13:09:21;;;;;;;53.15;23.38;;;7.60;99.90;;;;;;4950978;28;20046;-84
2022/01/13 13:11:55;;;;;;;41.00;20.33;;;7.60;99.90;;;;;;4958912;28;20356;-84
2022/01/13 13:14:33;;;;;;;44.03;23.58;;;7.60;99.90;;;;;;4922615;29;20051;-83
2022/01/13 13:16:59;;;;;;;51.03;23.25;;;7.60;99.90;;;;;;4953551;28;20050;-85
2022/01/13 13:19:25;;;;;;;45.88;22.10;;;7.60;99.90;;;;;;4956615;28;20086;-83
2022/01/13 13:21:55;;;;;;;51.03;21.73;;;7.70;99.90;;;;;;4953854;28;20140;-83
2022/01/13 13:24:23;;;;;;;45.15;20.55;;;7.70;99.90;;;;;;4939316;28;20426;-85
2022/01/13 13:26:52;;;;;;;34.70;18.33;;;7.80;99.90;;;;;;4955777;28;20118;-86
2022/01/13 13:29:25;;;;;;;43.90;19.17;;;8.20;99.90;;;;;;4955974;28;20113;-85
2022/01/13 13:31:56;;;;;;;44.97;21.08;;;8.00;99.90;;;;;;4965416;28;20054;-85
2022/01/13 13:34:21;;;;;;;42.40;20.40;;;8.10;99.90;;;;;;4954856;28;20050;-82
2022/01/13 13:36:48;;;;;;;38.47;17.05;;;7.80;99.90;;;;;;4963188;28;20430;-85
2022/01/13 13:39:17;;;;;;;36.35;16.63;;;8.20;99.90;;;;;;4958612;28;20431;-83
2022/01/13 13:41:46;;;;;;;42.53;19.52;;;7.90;99.90;;;;;;4974425;28;20051;-85
2022/01/13 13:44:21;;;;;;;34.63;15.40;;;7.90;99.90;;;;;;5057077;28;20132;-82
2022/01/13 13:46:55;;;;;;;33.17;17.52;;;7.90;99.90;;;;;;5027370;28;20634;-82
2022/01/13 13:49:22;;;;;;;36.80;17.40;;;7.90;99.90;;;;;;5016869;28;20452;-82
2022/01/13 13:51:55;;;;;;;37.17;17.75;;;8.50;99.90;;;;;;5016299;28;20396;-82
2022/01/13 13:54:29;;;;;;;36.30;17.50;;;7.80;99.90;;;;;;5027771;28;20045;-84
2022/01/13 13:57:03;;;;;;;42.17;17.40;;;7.90;99.90;;;;;;5063684;28;20059;-83
2022/01/13 13:59:34;;;;;;;31.55;16.92;;;7.90;99.90;;;;;;5052753;28;20037;-83
2022/01/13 14:02:29;;;;;;;37.10;16.30;;;7.90;99.90;;;;;;5051031;28;20519;-85
2022/01/13 14:05:00;;;;;;;34.07;16.33;;;7.90;99.90;;;;;;5032709;28;20053;-84
2022/01/13 14:07:28;;;;;;;39.20;15.23;;;7.90;99.90;;;;;;5021506;28;20426;-85
2022/01/13 14:10:05;;;;;;;40.70;16.88;;;7.80;99.90;;;;;;5060907;28;20503;-83
2022/01/13 14:12:40;;;;;;;34.75;13.93;;;7.90;99.90;;;;;;5008835;28;20477;-83
2022/01/13 14:15:32;;;;;;;44.70;16.30;;;7.80;99.90;;;;;;5027160;28;20048;-82
2022/01/13 14:18:14;;;;;;;41.00;15.45;;;7.80;99.90;;;;;;5019127;28;20436;-84
2022/01/13 14:20:48;;;;;;;34.22;16.48;;;7.80;99.90;;;;;;5034650;28;20124;-85
2022/01/13 14:23:26;;;;;;;40.67;16.48;;;7.80;99.90;;;;;;5033498;28;20049;-85
2022/01/13 14:26:09;;;;;;;38.45;16.73;;;7.70;99.90;;;;;;5033749;28;20040;-83
2022/01/13 14:28:38;;;;;;;38.60;15.95;;;7.80;99.90;;;;;;5010026;28;20057;-83
2022/01/13 14:31:09;;;;;;;36.75;15.73;;;7.90;99.90;;;;;;5036097;28;20144;-87
2022/01/13 14:33:36;;;;;;;40.70;15.82;;;7.70;99.90;;;;;;5023456;28;20225;-82
2022/01/13 14:36:17;;;;;;;34.47;14.05;;;8.10;99.90;;;;;;4999299;28;20073;-82
2022/01/13 14:38:51;;;;;;;41.17;15.65;;;8.30;99.90;;;;;;4986486;28;20140;-82
2022/01/13 14:41:30;;;;;;;31.83;14.70;;;7.70;99.90;;;;;;5035254;28;20046;-81
2022/01/13 14:44:04;;;;;;;38.15;14.18;;;8.50;99.90;;;;;;5033810;28;20049;-82
2022/01/13 14:46:36;;;;;;;33.75;13.07;;;7.80;99.90;;;;;;5019870;28;20120;-82
2022/01/13 14:49:03;;;;;;;32.03;12.13;;;7.70;99.90;;;;;;5039485;28;20037;-85
2022/01/13 14:51:28;;;;;;;30.50;11.35;;;7.80;99.90;;;;;;5018514;28;20045;-83
2022/01/13 14:53:55;;;;;;;34.42;10.98;;;8.20;99.90;;;;;;5014142;28;20049;-82
2022/01/13 14:56:21;;;;;;;26.70;12.23;;;7.80;99.90;;;;;;5034682;28;20048;-82
2022/01/13 14:58:48;;;;;;;25.60;11.20;;;8.30;99.90;;;;;;5048814;28;20029;-82
2022/01/13 15:01:17;;;;;;;40.38;16.20;;;8.10;99.90;;;;;;5019723;28;20041;-79
2022/01/13 15:03:44;;;;;;;35.78;12.93;;;7.80;99.90;;;;;;5056892;28;20045;-81
2022/01/13 15:06:09;;;;;;;35.75;12.70;;;7.80;99.90;;;;;;5040543;28;20043;-81
2022/01/13 15:08:35;;;;;;;27.65;10.00;;;7.90;99.90;;;;;;5055834;28;20049;-80
2022/01/13 15:11:02;;;;;;;43.55;11.15;;;7.70;99.90;;;;;;5039658;28;20033;-83
2022/01/13 15:13:28;;;;;;;28.23;10.20;;;8.00;99.90;;;;;;5002248;28;20045;-82
2022/01/13 15:15:54;;;;;;;34.92;10.60;;;7.70;99.90;;;;;;5021637;28;20049;-81
2022/01/13 15:18:21;;;;;;;30.05;9.85;;;8.60;99.90;;;;;;5032595;28;20048;-83
2022/01/13 15:20:47;;;;;;;35.58;10.15;;;8.00;99.90;;;;;;5021138;28;20057;-84
2022/01/13 15:23:13;;;;;;;28.08;10.15;;;8.30;99.90;;;;;;5013087;28;20049;-81
2022/01/13 15:25:40;;;;;;;24.05;8.68;;;7.70;99.90;;;;;;5037237;28;20038;-79
2022/01/13 15:28:06;;;;;;;31.00;9.57;;;7.70;99.90;;;;;;5057587;28;20508;-81
2022/01/13 15:30:32;;;;;;;34.78;10.82;;;7.70;99.90;;;;;;5005370;28;20388;-80
2022/01/13 15:32:58;;;;;;;31.58;9.68;;;7.70;99.90;;;;;;5053376;28;20120;-80
2022/01/13 15:35:24;;;;;;;29.73;9.45;;;7.50;99.90;;;;;;5024883;28;20116;-77
2022/01/13 15:37:50;;;;;;;35.63;10.00;;;7.50;99.90;;;;;;5034297;28;20059;-85
2022/01/13 15:40:17;;;;;;;35.78;10.02;;;7.50;99.90;;;;;;5026127;28;20041;-86
2022/01/13 15:42:46;;;;;;;31.95;9.93;;;7.50;99.90;;;;;;5037534;28;20128;-83
2022/01/13 15:45:13;;;;;;;29.75;9.57;;;7.90;99.90;;;;;;5018924;28;20053;-82
2022/01/13 15:47:40;;;;;;;35.47;9.70;;;7.70;99.90;;;;;;5040945;28;20041;-81
2022/01/13 15:50:09;;;;;;;35.40;10.38;;;7.50;99.90;;;;;;5003821;28;20112;-79
2022/01/13 15:52:36;;;;;;;27.13;8.90;;;7.20;99.90;;;;;;5044724;28;20053;-81
2022/01/13 15:55:04;;;;;;;36.22;9.40;;;7.90;99.90;;;;;;5044343;28;20044;-86
2022/01/13 15:57:29;;;;;;;35.78;9.35;;;7.20;99.90;;;;;;5016453;28;20029;-85
2022/01/13 15:59:55;;;;;;;39.38;9.20;;;7.20;99.90;;;;;;5037392;28;20068;-85
2022/01/13 16:02:21;;;;;;;34.55;9.25;;;7.30;99.90;;;;;;5042443;28;20111;-86
2022/01/13 16:04:47;;;;;;;37.58;9.18;;;7.30;99.90;;;;;;5002496;28;20346;-85
2022/01/13 16:07:13;;;;;;;32.40;9.32;;;7.90;99.90;;;;;;5070156;28;20122;-84
2022/01/13 16:09:38;;;;;;;38.25;8.85;;;7.30;99.90;;;;;;5060803;28;20048;-85
2022/01/13 16:12:05;;;;;;;31.60;8.23;;;8.10;99.90;;;;;;5062631;28;20072;-86
2022/01/13 16:14:33;;;;;;;37.05;8.88;;;7.20;99.90;;;;;;5025128;28;20053;-86
2022/01/13 16:17:38;;;;;;;33.10;9.10;;;7.20;99.90;;;;;;5013989;28;20428;-84
2022/01/13 16:20:04;;;;;;;26.05;7.55;;;7.30;99.90;;;;;;5024773;28;20107;-85
2022/01/13 16:22:30;;;;;;;36.60;8.50;;;7.30;99.90;;;;;;5058208;28;20084;-83
2022/01/13 16:24:55;;;;;;;31.27;8.18;;;7.30;99.90;;;;;;5020449;28;20087;-84
2022/01/13 16:27:21;;;;;;;21.23;6.90;;;7.20;99.90;;;;;;5042101;28;20056;-79
2022/01/13 16:30:28;;;;;;;30.40;6.82;;;7.20;99.90;;;;;;5043620;28;20127;-90
2022/01/13 16:33:06;;;;;;;29.90;7.60;;;7.20;99.90;;;;;;5027256;28;20055;-86
2022/01/13 16:35:47;;;;;;;25.98;6.15;;;7.20;99.90;;;;;;5043265;28;20110;-85
2022/01/13 16:38:16;;;;;;;34.90;7.70;;;7.30;99.90;;;;;;5032099;28;20436;-81
2022/01/13 16:40:42;;;;;;;30.38;7.25;;;7.30;99.90;;;;;;5050077;28;20036;-85
2022/01/13 16:43:09;;;;;;;39.20;7.30;;;8.00;99.90;;;;;;5046394;28;20029;-84
2022/01/13 16:45:38;;;;;;;30.35;7.15;;;7.60;99.90;;;;;;5023136;28;20122;-83
2022/01/13 16:48:05;;;;;;;31.60;6.47;;;7.20;99.90;;;;;;5025130;28;20515;-79
2022/01/13 16:50:37;;;;;;;31.42;7.28;;;7.10;99.90;;;;;;5058357;28;20052;-80
2022/01/13 16:53:07;;;;;;;22.98;6.25;;;7.10;99.90;;;;;;5053729;28;20039;-80
2022/01/13 16:55:34;;;;;;;28.48;6.50;;;7.00;99.90;;;;;;5048777;28;20132;-84
2022/01/13 16:58:01;;;;;;;30.35;6.78;;;8.00;99.90;;;;;;5047845;28;20037;-82
2022/01/13 17:00:33;;;;;;;32.20;6.75;;;7.10;99.90;;;;;;5032138;28;20052;-83
2022/01/13 17:03:02;;;;;;;32.13;6.38;;;7.00;99.90;;;;;;5040092;28;20053;-87
2022/01/13 17:05:28;;;;;;;29.73;6.55;;;6.90;99.90;;;;;;5035344;28;20044;-82
2022/01/13 17:07:54;;;;;;;32.17;6.55;;;6.90;99.90;;;;;;5043491;28;20037;-79
2022/01/13 17:10:24;;;;;;;27.58;6.93;;;6.90;99.90;;;;;;5046266;28;20076;-78
2022/01/13 17:12:49;;;;;;;29.35;6.90;;;6.80;99.90;;;;;;5059377;28;20143;-79
2022/01/13 17:15:37;;;;;;;33.67;6.63;;;6.80;99.90;;;;;;5051082;28;20120;-82
2022/01/13 17:18:04;;;;;;;36.50;7.93;;;6.80;99.90;;;;;;5040297;28;20505;-79
2022/01/13 17:20:30;;;;;;;28.00;7.28;;;6.70;99.90;;;;;;5034122;28;20080;-78
2022/01/13 17:22:56;;;;;;;32.70;7.80;;;6.60;99.90;;;;;;5041960;28;20058;-77
2022/01/13 17:25:22;;;;;;;27.15;7.38;;;6.60;99.90;;;;;;5041885;28;20056;-79
2022/01/13 17:27:48;;;;;;;26.35;7.32;;;6.50;99.90;;;;;;5040509;28;20171;-78
2022/01/13 17:30:17;;;;;;;35.15;7.72;;;6.80;99.90;;;;;;5036432;28;20488;-81
2022/01/13 17:32:44;;;;;;;29.27;7.20;;;6.40;99.90;;;;;;5037008;28;20130;-79
2022/01/13 17:35:11;;;;;;;36.28;7.22;;;6.40;99.90;;;;;;5032614;28;20094;-79
2022/01/13 17:37:38;;;;;;;34.55;7.75;;;6.40;99.90;;;;;;5043314;28;20064;-80
2022/01/13 17:40:05;;;;;;;30.63;7.03;;;6.30;99.90;;;;;;5039127;28;20045;-80
2022/01/13 17:42:58;;;;;;;31.20;6.50;;;6.20;99.90;;;;;;5034459;28;20335;-83
2022/01/13 17:45:43;;;;;;;26.55;6.75;;;6.10;99.90;;;;;;5040218;28;20707;-84
2022/01/13 17:48:23;;;;;;;26.60;6.40;;;6.00;99.90;;;;;;5043493;28;20029;-84
2022/01/13 17:51:09;;;;;;;23.90;6.78;;;6.00;99.90;;;;;;5023693;28;20096;-84